createdAt,value
2023-12-03T00:01:22.489Z,5.31
2023-12-03T00:03:50.018Z,5.23
2023-12-03T00:06:17.741Z,5.17
2023-12-03T00:08:50.840Z,5.12
2023-12-03T00:11:19.148Z,5.12
2023-12-03T00:13:46.558Z,5.06
2023-12-03T00:16:14.073Z,4.91
2023-12-03T00:18:41.540Z,4.72
2023-12-03T00:21:09.389Z,4.80
2023-12-03T00:23:36.828Z,4.72
2023-12-03T00:26:04.489Z,4.79
2023-12-03T00:28:31.897Z,4.86
2023-12-03T00:30:59.205Z,4.90
2023-12-03T00:33:27.229Z,4.75
2023-12-03T00:35:54.861Z,4.63
2023-12-03T00:38:23.072Z,4.74
2023-12-03T00:40:50.459Z,4.59
2023-12-03T00:43:17.840Z,4.74
2023-12-03T00:45:45.345Z,4.31
2023-12-03T00:48:12.927Z,4.27
2023-12-03T00:50:40.822Z,4.33
2023-12-03T00:53:08.299Z,4.29
2023-12-03T00:55:35.669Z,4.28
2023-12-03T00:58:03.165Z,4.23
2023-12-03T01:00:30.586Z,4.23
2023-12-03T01:02:58.221Z,4.05
2023-12-03T01:05:26.216Z,4.15
2023-12-03T01:07:53.651Z,3.92
2023-12-03T01:10:21.284Z,3.87
2023-12-03T01:12:48.802Z,3.75
2023-12-03T01:15:16.377Z,3.69
2023-12-03T01:17:44.075Z,3.75
2023-12-03T01:20:11.930Z,3.71
2023-12-03T01:22:39.332Z,3.69
2023-12-03T01:25:07.428Z,3.73
2023-12-03T01:27:34.866Z,3.56
2023-12-03T01:30:02.298Z,3.50
2023-12-03T01:32:29.637Z,3.51
2023-12-03T01:34:57.131Z,3.39
2023-12-03T01:37:24.619Z,3.53
2023-12-03T01:39:52.197Z,3.65
2023-12-03T01:42:21.274Z,3.64
2023-12-03T01:44:48.722Z,3.36
2023-12-03T01:47:16.402Z,3.43
2023-12-03T01:49:43.824Z,3.40
2023-12-03T01:52:12.349Z,3.37
2023-12-03T01:54:44.210Z,3.38
2023-12-03T01:57:12.489Z,3.39
2023-12-03T01:59:39.914Z,3.46
2023-12-03T02:02:07.330Z,3.53
2023-12-03T02:04:34.769Z,3.65
2023-12-03T02:07:02.288Z,3.68
2023-12-03T02:09:30.895Z,3.46
2023-12-03T02:11:58.464Z,3.52
2023-12-03T02:14:25.870Z,3.58
2023-12-03T02:16:53.246Z,3.70
2023-12-03T02:19:20.839Z,3.63
2023-12-03T02:21:48.354Z,3.16
2023-12-03T02:24:15.806Z,3.11
2023-12-03T02:26:43.344Z,3.14
2023-12-03T02:29:10.854Z,2.89
2023-12-03T02:31:38.264Z,2.94
2023-12-03T02:34:12.785Z,2.92
2023-12-03T02:36:40.805Z,2.93
2023-12-03T02:39:08.346Z,2.96
2023-12-03T02:41:35.789Z,3.03
2023-12-03T02:44:03.168Z,3.44
2023-12-03T02:46:30.594Z,3.55
2023-12-03T02:48:58.115Z,3.38
2023-12-03T02:51:25.589Z,3.31
2023-12-03T02:53:52.980Z,3.60
2023-12-03T02:56:20.428Z,3.01
2023-12-03T02:58:47.883Z,3.02
2023-12-03T03:01:15.334Z,3.10
2023-12-03T03:03:42.769Z,2.91
2023-12-03T03:06:10.301Z,2.49
2023-12-03T03:08:37.725Z,2.44
2023-12-03T03:11:05.274Z,2.54
2023-12-03T03:13:32.636Z,2.62
2023-12-03T03:16:00.004Z,2.73
2023-12-03T03:18:27.487Z,2.91
2023-12-03T03:20:54.874Z,2.90
2023-12-03T03:23:22.319Z,3.00
2023-12-03T03:25:49.702Z,3.14
2023-12-03T03:28:17.053Z,3.24
2023-12-03T03:30:44.682Z,3.33
2023-12-03T03:33:12.253Z,3.29
2023-12-03T03:35:39.656Z,3.33
2023-12-03T03:38:07.154Z,3.42
2023-12-03T03:40:34.509Z,3.45
2023-12-03T03:43:01.862Z,3.44
2023-12-03T03:45:29.247Z,3.26
2023-12-03T03:47:56.739Z,3.26
2023-12-03T03:50:24.175Z,3.35
2023-12-03T03:52:51.539Z,3.40
2023-12-03T03:55:19.010Z,3.27
2023-12-03T03:57:46.517Z,3.24
2023-12-03T04:00:14.696Z,3.27
2023-12-03T04:02:42.098Z,3.23
2023-12-03T04:05:09.810Z,3.39
2023-12-03T04:07:37.330Z,3.34
2023-12-03T04:10:06.322Z,3.28
2023-12-03T04:12:33.759Z,3.24
2023-12-03T04:15:01.176Z,3.18
2023-12-03T04:17:28.713Z,3.06
2023-12-03T04:19:56.148Z,3.13
2023-12-03T04:22:24.540Z,3.10
2023-12-03T04:24:52.120Z,2.96
2023-12-03T04:27:19.567Z,2.88
2023-12-03T04:29:46.950Z,2.91
2023-12-03T04:32:14.394Z,2.87
2023-12-03T04:34:42.125Z,2.96
2023-12-03T04:37:10.107Z,2.91
2023-12-03T04:39:37.473Z,2.90
2023-12-03T04:42:05.416Z,2.70
2023-12-03T04:44:32.854Z,2.61
2023-12-03T04:47:00.226Z,2.54
2023-12-03T04:49:27.726Z,2.68
2023-12-03T04:51:55.229Z,2.61
2023-12-03T04:54:22.708Z,2.52
2023-12-03T04:56:50.069Z,2.50
2023-12-03T04:59:17.925Z,2.34
2023-12-03T05:01:46.324Z,2.30
2023-12-03T05:04:13.823Z,2.36
2023-12-03T05:06:41.415Z,2.19
2023-12-03T05:09:10.693Z,2.16
2023-12-03T05:11:41.863Z,2.24
2023-12-03T05:14:09.740Z,2.23
2023-12-03T05:16:37.499Z,2.11
2023-12-03T05:19:05.046Z,2.20
2023-12-03T05:21:32.658Z,2.25
2023-12-03T05:24:00.294Z,2.30
2023-12-03T05:26:27.710Z,2.10
2023-12-03T05:28:55.086Z,2.09
2023-12-03T05:31:22.570Z,2.15
2023-12-03T05:33:50.015Z,2.02
2023-12-03T05:36:22.236Z,1.91
2023-12-03T05:38:52.823Z,2.08
2023-12-03T05:41:20.180Z,2.09
2023-12-03T05:43:47.533Z,1.98
2023-12-03T05:46:14.961Z,1.83
2023-12-03T05:48:43.709Z,1.76
2023-12-03T05:51:11.869Z,1.59
2023-12-03T05:53:39.392Z,1.55
2023-12-03T05:56:08.006Z,1.50
2023-12-03T05:58:35.786Z,1.47
2023-12-03T06:01:03.320Z,1.39
2023-12-03T06:03:30.733Z,1.69
2023-12-03T06:05:58.230Z,1.72
2023-12-03T06:08:25.617Z,1.96
2023-12-03T06:10:53.737Z,1.91
2023-12-03T06:13:21.218Z,1.84
2023-12-03T06:15:48.695Z,1.64
2023-12-03T06:18:16.699Z,1.46
2023-12-03T06:20:44.158Z,1.46
2023-12-03T06:23:13.545Z,1.38
2023-12-03T06:25:42.020Z,1.27
2023-12-03T06:28:09.565Z,1.31
2023-12-03T06:30:37.620Z,1.31
2023-12-03T06:33:05.095Z,1.23
2023-12-03T06:35:32.915Z,1.19
2023-12-03T06:38:00.703Z,1.23
2023-12-03T06:40:28.142Z,1.74
2023-12-03T06:42:55.744Z,1.83
2023-12-03T06:45:23.172Z,1.88
2023-12-03T06:47:51.031Z,1.75
2023-12-03T06:50:18.600Z,1.64
2023-12-03T06:52:46.802Z,1.84
2023-12-03T06:55:14.322Z,1.82
2023-12-03T06:57:42.023Z,1.70
2023-12-03T07:00:10.908Z,1.76
2023-12-03T07:02:38.490Z,1.69
2023-12-03T07:05:06.503Z,1.70
2023-12-03T07:07:34.064Z,1.68
2023-12-03T07:10:01.901Z,1.73
2023-12-03T07:12:29.631Z,1.82
2023-12-03T07:14:57.445Z,1.95
2023-12-03T07:17:25.059Z,2.20
2023-12-03T07:19:52.649Z,2.16
2023-12-03T07:22:20.148Z,2.08
2023-12-03T07:24:47.669Z,2.08
2023-12-03T07:27:20.462Z,2.14
2023-12-03T07:29:59.517Z,2.08
2023-12-03T07:32:27.673Z,2.29
2023-12-03T07:34:55.240Z,2.45
2023-12-03T07:37:22.849Z,2.26
2023-12-03T07:39:50.361Z,2.36
2023-12-03T07:42:18.457Z,2.62
2023-12-03T07:44:45.961Z,2.80
2023-12-03T07:47:13.512Z,2.93
2023-12-03T07:49:42.044Z,3.00
2023-12-03T07:52:09.729Z,2.67
2023-12-03T07:54:37.236Z,2.59
2023-12-03T07:57:06.408Z,2.69
2023-12-03T07:59:33.824Z,2.80
2023-12-03T08:02:01.612Z,2.97
2023-12-03T08:04:29.108Z,3.12
2023-12-03T08:06:56.656Z,3.11
2023-12-03T08:09:25.463Z,3.10
2023-12-03T08:11:54.422Z,3.03
2023-12-03T08:14:22.028Z,3.02
2023-12-03T08:16:49.632Z,3.10
2023-12-03T08:19:17.257Z,3.12
2023-12-03T08:21:45.035Z,3.18
2023-12-03T08:24:12.697Z,3.34
2023-12-03T08:26:40.345Z,3.29
2023-12-03T08:29:08.161Z,3.39
2023-12-03T08:31:35.866Z,3.52
2023-12-03T08:34:03.915Z,3.87
2023-12-03T08:36:32.614Z,3.78
2023-12-03T08:39:02.867Z,4.36
2023-12-03T08:41:30.334Z,5.89
2023-12-03T08:43:57.897Z,7.34
2023-12-03T08:46:28.529Z,8.21
2023-12-03T08:48:56.628Z,9.14
2023-12-03T08:51:24.355Z,9.23
2023-12-03T08:53:52.122Z,10.38
2023-12-03T08:56:19.641Z,10.38
2023-12-03T08:58:47.139Z,9.93
2023-12-03T09:01:15.507Z,10.44
2023-12-03T09:03:44.937Z,9.90
2023-12-03T09:06:14.468Z,9.76
2023-12-03T09:08:43.805Z,8.58
2023-12-03T09:11:17.738Z,8.62
2023-12-03T09:13:45.244Z,8.40
2023-12-03T09:16:12.792Z,8.70
2023-12-03T09:18:40.665Z,9.40
2023-12-03T09:21:10.589Z,9.44
2023-12-03T09:23:38.503Z,9.18
2023-12-03T09:26:06.578Z,8.86
2023-12-03T09:28:35.490Z,8.22
2023-12-03T09:31:03.130Z,7.84
2023-12-03T09:33:30.720Z,7.68
2023-12-03T09:35:58.310Z,7.29
2023-12-03T09:38:25.900Z,7.73
2023-12-03T09:40:56.567Z,8.02
2023-12-03T09:43:28.201Z,8.48
2023-12-03T09:45:57.382Z,9.84
2023-12-03T09:48:27.091Z,10.53
2023-12-03T09:50:56.146Z,10.59
2023-12-03T09:53:25.107Z,10.02
2023-12-03T09:55:54.631Z,10.83
2023-12-03T09:58:22.103Z,12.10
2023-12-03T10:00:49.643Z,11.95
2023-12-03T10:03:17.132Z,11.76
2023-12-03T10:05:46.497Z,11.00
2023-12-03T10:08:15.269Z,11.23
2023-12-03T10:10:47.571Z,10.30
2023-12-03T10:13:15.135Z,9.78
2023-12-03T10:15:42.591Z,8.93
2023-12-03T10:18:10.415Z,9.04
2023-12-03T10:20:38.239Z,8.97
2023-12-03T10:23:15.823Z,9.13
2023-12-03T10:25:43.391Z,9.61
2023-12-03T10:28:11.317Z,8.98
2023-12-03T10:30:38.863Z,9.07
2023-12-03T10:33:06.533Z,9.21
2023-12-03T10:35:36.168Z,8.88
2023-12-03T10:38:09.811Z,9.14
2023-12-03T10:40:37.801Z,9.71
2023-12-03T10:43:05.267Z,9.30
2023-12-03T10:45:34.016Z,9.50
2023-12-03T10:48:02.696Z,9.71
2023-12-03T10:50:31.630Z,9.83
2023-12-03T10:53:03.098Z,9.87
2023-12-03T10:55:30.686Z,9.85
2023-12-03T10:58:04.480Z,9.30
2023-12-03T11:00:40.139Z,9.86
2023-12-03T11:03:21.443Z,9.60
2023-12-03T11:05:54.629Z,9.56
2023-12-03T11:08:24.382Z,9.61
2023-12-03T11:10:52.309Z,9.60
2023-12-03T11:13:22.880Z,9.26
2023-12-03T11:15:56.060Z,9.14
2023-12-03T11:18:25.833Z,9.13
2023-12-03T11:20:59.749Z,9.03
2023-12-03T11:23:54.471Z,8.72
2023-12-03T11:26:21.816Z,9.00
2023-12-03T11:29:01.126Z,9.26
2023-12-03T11:31:28.766Z,9.37
2023-12-03T11:34:01.889Z,8.81
2023-12-03T11:36:51.122Z,9.20
2023-12-03T11:39:21.791Z,9.28
2023-12-03T11:42:07.306Z,9.02
2023-12-03T11:44:35.138Z,8.95
2023-12-03T11:47:08.371Z,8.73
2023-12-03T11:49:38.307Z,9.01
2023-12-03T11:52:06.989Z,8.95
2023-12-03T11:54:51.012Z,8.97
2023-12-03T11:57:18.628Z,8.80
2023-12-03T11:59:46.324Z,8.72
2023-12-03T12:02:15.283Z,8.87
2023-12-03T12:04:43.164Z,8.98
2023-12-03T12:07:14.434Z,8.94
2023-12-03T12:09:42.217Z,8.82
2023-12-03T12:12:10.369Z,9.05
2023-12-03T12:14:37.941Z,8.81
2023-12-03T12:17:09.310Z,8.87
2023-12-03T12:19:36.948Z,8.78
2023-12-03T12:22:04.407Z,8.72
2023-12-03T12:24:31.958Z,8.60
2023-12-03T12:27:00.026Z,8.55
2023-12-03T12:29:27.955Z,8.68
2023-12-03T12:31:56.371Z,8.55
2023-12-03T12:34:29.329Z,8.41
2023-12-03T12:37:09.629Z,8.39
2023-12-03T12:39:37.391Z,8.43
2023-12-03T12:42:05.712Z,8.45
2023-12-03T12:44:46.760Z,8.55
2023-12-03T12:47:20.987Z,8.66
2023-12-03T12:49:57.062Z,8.52
2023-12-03T12:52:25.827Z,8.21
2023-12-03T12:55:03.685Z,8.41
2023-12-03T12:57:34.697Z,8.46
2023-12-03T13:00:02.198Z,8.38
2023-12-03T13:02:31.104Z,8.27
2023-12-03T13:04:58.563Z,8.32
2023-12-03T13:07:26.034Z,8.38
2023-12-03T13:09:55.447Z,8.39
2023-12-03T13:12:23.792Z,8.31
2023-12-03T13:14:52.078Z,8.32
2023-12-03T13:17:19.623Z,8.38
2023-12-03T13:19:47.135Z,8.23
2023-12-03T13:22:15.061Z,8.42
2023-12-03T13:24:42.682Z,8.44
2023-12-03T13:27:10.572Z,8.28
2023-12-03T13:29:37.974Z,8.22
2023-12-03T13:32:05.937Z,8.18
2023-12-03T13:34:33.367Z,8.24
2023-12-03T13:37:01.597Z,8.17
2023-12-03T13:39:29.024Z,8.18
2023-12-03T13:41:56.945Z,8.20
2023-12-03T13:44:26.976Z,8.18
2023-12-03T13:46:58.467Z,8.05
2023-12-03T13:49:26.061Z,7.87
2023-12-03T13:51:55.920Z,7.83
2023-12-03T13:54:23.585Z,7.91
2023-12-03T13:56:51.990Z,7.90
2023-12-03T13:59:19.667Z,7.89
2023-12-03T14:01:49.166Z,7.85
2023-12-03T14:04:20.506Z,7.75
2023-12-03T14:06:48.050Z,7.70
2023-12-03T14:09:16.361Z,7.53
2023-12-03T14:11:44.508Z,7.32
2023-12-03T14:14:12.209Z,7.50
2023-12-03T14:16:39.780Z,7.37
2023-12-03T14:19:10.697Z,7.52
2023-12-03T14:21:42.817Z,7.47
2023-12-03T14:24:10.358Z,7.44
2023-12-03T14:26:37.828Z,7.39
2023-12-03T14:29:05.302Z,7.38
2023-12-03T14:31:33.217Z,7.14
2023-12-03T14:34:10.648Z,7.02
2023-12-03T14:36:38.292Z,6.91
2023-12-03T14:39:05.986Z,6.89
2023-12-03T14:41:33.551Z,6.80
2023-12-03T14:44:01.907Z,6.77
2023-12-03T14:46:34.158Z,6.76
2023-12-03T14:49:02.645Z,6.51
2023-12-03T14:51:30.713Z,6.35
2023-12-03T14:53:58.362Z,6.28
2023-12-03T14:56:28.624Z,6.26
2023-12-03T14:58:59.445Z,6.21
2023-12-03T15:01:31.296Z,6.14
2023-12-03T15:03:59.025Z,6.02
2023-12-03T15:06:26.912Z,6.14
2023-12-03T15:08:54.414Z,6.04
2023-12-03T15:11:21.850Z,5.92
2023-12-03T15:13:49.972Z,5.76
2023-12-03T15:16:18.058Z,5.69
2023-12-03T15:18:45.975Z,5.65
2023-12-03T15:21:13.651Z,5.33
2023-12-03T15:23:42.311Z,5.16
2023-12-03T15:26:11.640Z,5.08
2023-12-03T15:28:39.162Z,5.04
2023-12-03T15:31:07.547Z,5.22
2023-12-03T15:33:35.126Z,5.28
2023-12-03T15:36:02.702Z,5.28
2023-12-03T15:38:30.181Z,5.29
2023-12-03T15:40:57.809Z,5.12
2023-12-03T15:43:33.838Z,5.17
2023-12-03T15:46:06.016Z,5.07
2023-12-03T15:48:36.132Z,5.03
2023-12-03T15:51:04.283Z,4.82
2023-12-03T15:53:34.086Z,4.67
2023-12-03T15:56:01.737Z,4.65
2023-12-03T15:58:33.405Z,4.30
2023-12-03T16:01:01.066Z,4.33
2023-12-03T16:03:28.837Z,4.53
2023-12-03T16:05:57.204Z,4.37
2023-12-03T16:08:24.996Z,4.12
2023-12-03T16:10:52.607Z,3.85
2023-12-03T16:13:20.171Z,3.64
2023-12-03T16:15:47.693Z,3.63
2023-12-03T16:18:15.296Z,3.78
2023-12-03T16:20:42.862Z,4.06
2023-12-03T16:23:10.459Z,3.72
2023-12-03T16:25:38.044Z,3.59
2023-12-03T16:28:05.493Z,3.68
2023-12-03T16:30:32.934Z,3.53
2023-12-03T16:33:00.717Z,3.31
2023-12-03T16:35:28.223Z,3.58
2023-12-03T16:37:55.913Z,3.71
2023-12-03T16:40:24.026Z,3.89
2023-12-03T16:42:51.540Z,3.84
2023-12-03T16:45:18.977Z,3.54
2023-12-03T16:47:46.441Z,3.56
2023-12-03T16:50:14.055Z,3.64
2023-12-03T16:52:41.475Z,3.29
2023-12-03T16:55:09.189Z,3.00
2023-12-03T16:57:37.056Z,2.86
2023-12-03T17:00:05.572Z,2.65
2023-12-03T17:02:34.156Z,2.63
2023-12-03T17:05:01.660Z,2.55
2023-12-03T17:07:29.213Z,2.53
2023-12-03T17:10:00.667Z,2.60
2023-12-03T17:12:28.577Z,2.60
2023-12-03T17:14:56.762Z,2.60
2023-12-03T17:17:26.400Z,2.72
2023-12-03T17:19:57.468Z,2.73
2023-12-03T17:22:25.157Z,2.73
2023-12-03T17:24:53.725Z,2.75
2023-12-03T17:27:21.088Z,2.71
2023-12-03T17:29:48.566Z,2.68
2023-12-03T17:32:15.989Z,2.80
2023-12-03T17:34:43.485Z,2.66
2023-12-03T17:37:10.883Z,2.59
2023-12-03T17:39:39.288Z,2.52
2023-12-03T17:42:09.218Z,2.45
2023-12-03T17:44:36.721Z,2.47
2023-12-03T17:47:04.303Z,2.59
2023-12-03T17:49:31.850Z,2.69
2023-12-03T17:51:59.507Z,2.49
2023-12-03T17:54:27.304Z,2.47
2023-12-03T17:56:55.042Z,2.41
2023-12-03T17:59:22.590Z,2.46
2023-12-03T18:01:50.322Z,2.39
2023-12-03T18:04:18.155Z,2.29
2023-12-03T18:06:45.808Z,2.26
2023-12-03T18:09:13.872Z,2.19
2023-12-03T18:11:44.528Z,2.20
2023-12-03T18:14:12.545Z,2.16
2023-12-03T18:16:40.200Z,2.19
2023-12-03T18:19:07.832Z,2.17
2023-12-03T18:21:35.803Z,2.05
2023-12-03T18:24:03.615Z,2.00
2023-12-03T18:26:31.237Z,2.09
2023-12-03T18:28:58.776Z,2.08
2023-12-03T18:31:26.514Z,2.31
2023-12-03T18:33:54.493Z,2.14
2023-12-03T18:36:22.297Z,2.16
2023-12-03T18:38:51.670Z,1.97
2023-12-03T18:41:23.971Z,2.06
2023-12-03T18:43:52.478Z,2.12
2023-12-03T18:46:21.286Z,2.14
2023-12-03T18:48:48.979Z,2.12
2023-12-03T18:51:16.902Z,2.02
2023-12-03T18:53:44.597Z,2.00
2023-12-03T18:56:14.645Z,1.97
2023-12-03T18:58:42.658Z,2.02
2023-12-03T19:01:11.106Z,2.01
2023-12-03T19:03:38.720Z,2.00
2023-12-03T19:06:06.540Z,1.96
2023-12-03T19:08:35.963Z,1.83
2023-12-03T19:11:07.780Z,1.77
2023-12-03T19:13:35.800Z,1.77
2023-12-03T19:16:03.839Z,2.08
2023-12-03T19:18:31.341Z,2.08
2023-12-03T19:20:58.887Z,1.86
2023-12-03T19:23:26.380Z,1.84
2023-12-03T19:25:54.238Z,1.78
2023-12-03T19:28:22.701Z,1.71
2023-12-03T19:30:51.615Z,1.66
2023-12-03T19:33:19.138Z,1.69
2023-12-03T19:35:48.116Z,1.63
2023-12-03T19:38:15.642Z,1.51
2023-12-03T19:40:43.193Z,1.63
2023-12-03T19:43:10.646Z,1.62
2023-12-03T19:45:38.759Z,1.77
2023-12-03T19:48:06.674Z,1.68
2023-12-03T19:50:35.544Z,1.56
2023-12-03T19:53:03.846Z,1.54
2023-12-03T19:55:31.367Z,1.48
2023-12-03T19:57:59.066Z,1.41
2023-12-03T20:00:26.614Z,1.31
2023-12-03T20:02:54.536Z,1.31
2023-12-03T20:05:22.119Z,1.20
2023-12-03T20:07:49.564Z,1.11
2023-12-03T20:10:16.997Z,1.23
2023-12-03T20:12:44.687Z,1.40
2023-12-03T20:15:20.909Z,1.38
2023-12-03T20:17:52.556Z,1.45
2023-12-03T20:20:20.145Z,1.57
2023-12-03T20:22:47.676Z,1.41
2023-12-03T20:25:15.278Z,1.55
2023-12-03T20:27:42.814Z,1.60
2023-12-03T20:30:13.643Z,1.55
2023-12-03T20:32:41.756Z,1.50
2023-12-03T20:35:09.266Z,1.31
2023-12-03T20:37:36.795Z,1.28
2023-12-03T20:40:04.752Z,1.37
2023-12-03T20:42:33.116Z,1.31
2023-12-03T20:45:00.871Z,1.26
2023-12-03T20:47:29.032Z,1.31
2023-12-03T20:49:57.949Z,1.32
2023-12-03T20:52:25.503Z,1.45
2023-12-03T20:55:01.274Z,1.38
2023-12-03T20:57:28.801Z,1.37
2023-12-03T20:59:57.758Z,1.45
2023-12-03T21:02:25.901Z,1.38
2023-12-03T21:04:54.024Z,1.31
2023-12-03T21:07:22.277Z,1.26
2023-12-03T21:09:49.946Z,1.27
2023-12-03T21:12:17.336Z,1.32
2023-12-03T21:14:44.827Z,1.27
2023-12-03T21:17:12.251Z,1.20
2023-12-03T21:19:39.937Z,1.36
2023-12-03T21:22:07.754Z,1.11
2023-12-03T21:24:35.533Z,1.08
2023-12-03T21:27:03.213Z,0.95
2023-12-03T21:29:31.021Z,0.96
2023-12-03T21:32:00.170Z,0.87
2023-12-03T21:34:27.913Z,0.91
2023-12-03T21:36:57.131Z,1.00
2023-12-03T21:39:24.528Z,1.02
2023-12-03T21:41:52.247Z,1.01
2023-12-03T21:44:20.694Z,0.92
2023-12-03T21:46:48.606Z,1.01
2023-12-03T21:49:16.164Z,1.25
2023-12-03T21:51:44.493Z,1.03
2023-12-03T21:54:11.838Z,0.82
2023-12-03T21:56:39.393Z,0.61
2023-12-03T21:59:07.813Z,0.51
2023-12-03T22:01:35.313Z,0.55
2023-12-03T22:04:02.815Z,0.49
2023-12-03T22:06:30.431Z,0.51
2023-12-03T22:08:58.036Z,0.59
2023-12-03T22:11:25.411Z,0.82
2023-12-03T22:13:52.937Z,0.72
2023-12-03T22:16:20.280Z,0.93
2023-12-03T22:18:47.738Z,0.72
2023-12-03T22:21:15.353Z,0.88
2023-12-03T22:23:42.823Z,0.88
2023-12-03T22:26:10.270Z,0.73
2023-12-03T22:28:37.620Z,0.74
2023-12-03T22:31:05.290Z,0.77
2023-12-03T22:33:32.870Z,0.70
2023-12-03T22:36:02.827Z,0.65
2023-12-03T22:38:31.204Z,0.78
2023-12-03T22:40:59.610Z,0.84
2023-12-03T22:43:27.000Z,1.00
2023-12-03T22:45:55.067Z,0.79
2023-12-03T22:48:22.693Z,0.69
2023-12-03T22:50:50.689Z,0.65
2023-12-03T22:53:18.073Z,0.58
2023-12-03T22:55:46.091Z,0.50
2023-12-03T22:58:13.649Z,0.46
2023-12-03T23:00:41.026Z,0.59
2023-12-03T23:03:08.912Z,0.54
2023-12-03T23:05:39.259Z,0.60
2023-12-03T23:08:08.095Z,0.59
2023-12-03T23:10:35.765Z,0.62
2023-12-03T23:13:03.550Z,0.82
2023-12-03T23:15:31.623Z,0.82
2023-12-03T23:17:59.651Z,0.74
2023-12-03T23:20:27.687Z,0.68
2023-12-03T23:22:56.352Z,0.89
2023-12-03T23:25:23.904Z,0.94
2023-12-03T23:27:51.412Z,0.92
2023-12-03T23:30:18.942Z,0.99
2023-12-03T23:32:47.988Z,0.79
2023-12-03T23:35:15.615Z,0.82
2023-12-03T23:37:43.586Z,0.81
2023-12-03T23:40:11.230Z,0.78
2023-12-03T23:42:38.762Z,0.52
2023-12-03T23:45:06.535Z,0.66
2023-12-03T23:47:34.126Z,0.61
2023-12-03T23:50:02.067Z,0.96
2023-12-03T23:52:29.554Z,1.45
2023-12-03T23:54:56.944Z,1.50
2023-12-03T23:57:24.564Z,1.37
2023-12-03T23:59:52.853Z,1.17
